createdAt,value
2023-02-23T00:00:06.977Z,98092.47
2023-02-23T00:02:33.214Z,98086.31
2023-02-23T00:04:59.448Z,98093.28
2023-02-23T00:07:25.661Z,98089.63
2023-02-23T00:09:51.892Z,98093.28
2023-02-23T00:12:18.300Z,98084.28
2023-02-23T00:14:44.547Z,98092.47
2023-02-23T00:17:10.806Z,98086.13
2023-02-23T00:19:37.056Z,98085.28
2023-02-23T00:22:03.224Z,98081.81
2023-02-23T00:24:29.435Z,98086.31
2023-02-23T00:26:55.702Z,98083.66
2023-02-23T00:29:21.898Z,98086.13
2023-02-23T00:31:48.297Z,98084.47
2023-02-23T00:34:14.621Z,98089.00
2023-02-23T00:36:40.787Z,98081.00
2023-02-23T00:39:06.951Z,98087.13
2023-02-23T00:41:33.202Z,98083.66
2023-02-23T00:43:59.390Z,98085.50
2023-02-23T00:46:25.583Z,98084.69
2023-02-23T00:48:51.796Z,98087.13
2023-02-23T00:51:18.281Z,98081.00
2023-02-23T00:53:44.763Z,98084.69
2023-02-23T00:56:11.010Z,98082.84
2023-02-23T00:58:37.142Z,98081.00
2023-02-23T01:01:03.352Z,98086.31
2023-02-23T01:03:29.559Z,98076.69
2023-02-23T01:05:55.763Z,98079.38
2023-02-23T01:08:21.980Z,98074.84
2023-02-23T01:10:48.134Z,98070.31
2023-02-23T01:13:14.394Z,98075.66
2023-02-23T01:15:40.615Z,98074.03
2023-02-23T01:18:06.861Z,98076.47
2023-02-23T01:20:33.077Z,98082.63
2023-02-23T01:22:59.244Z,98074.84
2023-02-23T01:25:25.522Z,98083.66
2023-02-23T01:27:51.705Z,98077.50
2023-02-23T01:30:17.920Z,98080.19
2023-02-23T01:32:44.092Z,98073.81
2023-02-23T01:35:10.310Z,98079.13
2023-02-23T01:37:36.546Z,98071.94
2023-02-23T01:40:02.713Z,98074.84
2023-02-23T01:42:28.858Z,98072.38
2023-02-23T01:44:55.082Z,98073.19
2023-02-23T01:47:21.285Z,98072.16
2023-02-23T01:49:47.507Z,98069.50
2023-02-23T01:52:13.674Z,98077.50
2023-02-23T01:54:39.896Z,98078.31
2023-02-23T01:57:06.172Z,98074.03
2023-02-23T01:59:35.146Z,98072.16
2023-02-23T02:02:04.318Z,98077.50
2023-02-23T02:04:30.541Z,98083.03
2023-02-23T02:06:57.045Z,98075.84
2023-02-23T02:09:26.091Z,98072.38
2023-02-23T02:11:52.223Z,98063.34
2023-02-23T02:14:18.564Z,98068.69
2023-02-23T02:16:44.932Z,98061.69
2023-02-23T02:19:12.341Z,98063.34
2023-02-23T02:21:38.492Z,98063.34
2023-02-23T02:24:04.827Z,98064.38
2023-02-23T02:26:31.060Z,98058.84
2023-02-23T02:28:57.189Z,98058.84
2023-02-23T02:31:23.367Z,98056.16
2023-02-23T02:33:49.554Z,98062.31
2023-02-23T02:36:15.804Z,98054.50
2023-02-23T02:38:42.069Z,98050.22
2023-02-23T02:41:08.284Z,98051.84
2023-02-23T02:43:34.436Z,98051.84
2023-02-23T02:46:01.543Z,98041.16
2023-02-23T02:48:30.610Z,98051.84
2023-02-23T02:50:56.829Z,98046.50
2023-02-23T02:53:23.149Z,98047.34
2023-02-23T02:55:49.397Z,98049.41
2023-02-23T02:58:15.663Z,98040.34
2023-02-23T03:00:41.945Z,98036.88
2023-02-23T03:03:08.118Z,98042.00
2023-02-23T03:05:34.477Z,98036.69
2023-02-23T03:08:00.701Z,98035.00
2023-02-23T03:10:27.049Z,98035.81
2023-02-23T03:12:54.395Z,98030.50
2023-02-23T03:18:01.262Z,98039.53
2023-02-23T03:20:27.487Z,98030.50
2023-02-23T03:22:53.673Z,98037.69
2023-02-23T03:25:19.860Z,98040.34
2023-02-23T03:27:46.149Z,98036.69
2023-02-23T03:30:12.312Z,98036.06
2023-02-23T03:32:38.499Z,98035.00
2023-02-23T03:35:04.784Z,98035.81
2023-02-23T03:37:30.985Z,98036.69
2023-02-23T03:39:57.143Z,98035.00
2023-02-23T03:42:23.354Z,98034.19
2023-02-23T03:44:49.557Z,98042.81
2023-02-23T03:47:15.855Z,98037.69
2023-02-23T03:49:42.084Z,98041.16
2023-02-23T03:52:08.298Z,98034.19
2023-02-23T03:54:34.458Z,98037.69
2023-02-23T03:57:00.665Z,98033.16
2023-02-23T03:59:26.880Z,98035.00
2023-02-23T04:01:53.149Z,98041.16
2023-02-23T04:04:19.343Z,98036.69
2023-02-23T04:06:45.555Z,98042.00
2023-02-23T04:09:11.769Z,98039.34
2023-02-23T04:11:37.932Z,98045.69
2023-02-23T04:14:04.091Z,98045.69
2023-02-23T04:16:33.407Z,98040.34
2023-02-23T04:19:00.219Z,98036.88
2023-02-23T04:21:26.389Z,98040.34
2023-02-23T04:23:52.575Z,98040.34
2023-02-23T04:26:18.789Z,98040.34
2023-02-23T04:28:44.985Z,98034.19
2023-02-23T04:31:11.363Z,98056.34
2023-02-23T04:33:37.613Z,98044.88
2023-02-23T04:36:03.746Z,98041.38
2023-02-23T04:38:32.107Z,98038.72
2023-02-23T04:40:58.277Z,98053.06
2023-02-23T04:43:24.462Z,98049.41
2023-02-23T04:45:50.625Z,98052.88
2023-02-23T04:48:16.882Z,98054.50
2023-02-23T04:50:43.090Z,98046.50
2023-02-23T04:53:09.331Z,98051.84
2023-02-23T04:55:35.584Z,98054.72
2023-02-23T04:58:04.181Z,98060.06
2023-02-23T05:00:30.403Z,98058.22
2023-02-23T05:02:56.661Z,98056.59
2023-02-23T05:05:22.823Z,98054.72
2023-02-23T05:07:48.990Z,98050.22
2023-02-23T05:10:15.177Z,98055.53
2023-02-23T05:12:41.389Z,98058.22
2023-02-23T05:15:07.655Z,98060.06
2023-02-23T05:17:36.628Z,98057.19
2023-02-23T05:20:02.856Z,98061.69
2023-02-23T05:22:29.035Z,98067.25
2023-02-23T05:24:57.348Z,98062.75
2023-02-23T05:27:23.763Z,98063.75
2023-02-23T05:29:49.904Z,98065.41
2023-02-23T05:32:16.306Z,98067.03
2023-02-23T05:34:42.581Z,98060.06
2023-02-23T05:37:08.792Z,98070.75
2023-02-23T05:39:35.289Z,98069.09
2023-02-23T05:42:01.634Z,98068.06
2023-02-23T05:44:27.824Z,98062.75
2023-02-23T05:46:54.029Z,98065.41
2023-02-23T05:49:21.333Z,98063.75
2023-02-23T05:51:47.519Z,98068.88
2023-02-23T05:54:13.916Z,98063.56
2023-02-23T05:56:40.178Z,98069.69
2023-02-23T05:59:06.366Z,98061.69
2023-02-23T06:01:32.650Z,98075.03
2023-02-23T06:03:58.955Z,98075.25
2023-02-23T06:06:25.149Z,98072.59
2023-02-23T06:08:54.691Z,98073.41
2023-02-23T06:11:23.154Z,98069.94
2023-02-23T06:13:59.756Z,98069.94
2023-02-23T06:16:26.104Z,98070.75
2023-02-23T06:18:52.247Z,98085.09
2023-02-23T06:21:18.697Z,98081.41
2023-02-23T06:23:45.074Z,98084.09
2023-02-23T06:26:11.249Z,98083.03
2023-02-23T06:28:37.399Z,98092.91
2023-02-23T06:31:03.777Z,98095.38
2023-02-23T06:33:30.010Z,98091.03
2023-02-23T06:35:56.251Z,98096.38
2023-02-23T06:38:23.941Z,98103.56
2023-02-23T06:40:50.240Z,98103.78
2023-02-23T06:43:16.461Z,98108.91
2023-02-23T06:45:42.774Z,98100.91
2023-02-23T06:48:09.090Z,98107.28
2023-02-23T06:50:35.386Z,98109.94
2023-02-23T06:53:01.718Z,98109.09
2023-02-23T06:55:27.910Z,98112.63
2023-02-23T06:57:54.010Z,98109.94
2023-02-23T07:00:20.259Z,98118.78
2023-02-23T07:02:46.522Z,98125.13
2023-02-23T07:05:12.835Z,98121.44
2023-02-23T07:07:39.029Z,98128.63
2023-02-23T07:10:05.274Z,98129.44
2023-02-23T07:12:31.549Z,98141.97
2023-02-23T07:14:57.896Z,98134.78
2023-02-23T07:17:24.105Z,98132.31
2023-02-23T07:19:50.313Z,98138.47
2023-02-23T07:22:16.588Z,98141.13
2023-02-23T07:24:42.715Z,98133.97
2023-02-23T07:27:09.000Z,98138.25
2023-02-23T07:29:35.268Z,98141.97
2023-02-23T07:32:01.535Z,98140.94
2023-02-23T07:34:27.814Z,98145.22
2023-02-23T07:36:56.402Z,98140.94
2023-02-23T07:39:22.801Z,98155.09
2023-02-23T07:41:49.019Z,98148.13
2023-02-23T07:44:15.330Z,98151.59
2023-02-23T07:46:41.783Z,98150.78
2023-02-23T07:49:07.982Z,98152.41
2023-02-23T07:51:34.216Z,98149.75
2023-02-23T07:54:00.445Z,98159.41
2023-02-23T07:56:26.636Z,98157.75
2023-02-23T07:58:52.795Z,98162.09
2023-02-23T08:01:19.259Z,98162.28
2023-02-23T08:03:45.633Z,98161.47
2023-02-23T08:06:14.536Z,98166.78
2023-02-23T08:08:40.763Z,98163.31
2023-02-23T08:11:07.019Z,98161.47
2023-02-23T08:13:33.258Z,98168.66
2023-02-23T08:15:59.433Z,98172.31
2023-02-23T08:18:25.647Z,98175.63
2023-02-23T08:20:51.823Z,98179.50
2023-02-23T08:23:18.025Z,98179.50
2023-02-23T08:25:44.192Z,98178.47
2023-02-23T08:28:10.334Z,98182.00
2023-02-23T08:30:36.651Z,98181.16
2023-02-23T08:33:02.854Z,98183.81
2023-02-23T08:35:29.080Z,98186.47
2023-02-23T08:37:55.266Z,98188.13
2023-02-23T08:40:21.488Z,98190.81
2023-02-23T08:42:47.636Z,98186.47
2023-02-23T08:45:13.805Z,98192.66
2023-02-23T08:47:39.939Z,98195.34
2023-02-23T08:50:06.136Z,98198.81
2023-02-23T08:52:32.333Z,98196.97
2023-02-23T08:54:58.460Z,98196.16
2023-02-23T08:57:26.081Z,98198.81
2023-02-23T08:59:52.259Z,98202.50
2023-02-23T09:02:18.388Z,98202.50
2023-02-23T09:04:44.684Z,98207.81
2023-02-23T09:07:10.930Z,98200.88
2023-02-23T09:09:37.075Z,98207.81
2023-02-23T09:12:03.222Z,98210.50
2023-02-23T09:14:29.337Z,98209.50
2023-02-23T09:16:55.449Z,98212.97
2023-02-23T09:19:21.706Z,98215.63
2023-02-23T09:21:47.850Z,98216.47
2023-02-23T09:24:13.946Z,98219.94
2023-02-23T09:26:40.163Z,98225.50
2023-02-23T09:29:06.300Z,98220.97
2023-02-23T09:31:32.479Z,98220.97
2023-02-23T09:33:58.659Z,98221.78
2023-02-23T09:36:24.836Z,98220.97
2023-02-23T09:38:51.070Z,98221.78
2023-02-23T09:41:17.441Z,98222.59
2023-02-23T09:43:43.720Z,98224.47
2023-02-23T09:46:09.873Z,98236.78
2023-02-23T09:48:36.044Z,98234.31
2023-02-23T09:51:02.174Z,98233.28
2023-02-23T09:53:28.284Z,98234.13
2023-02-23T09:55:54.461Z,98227.13
2023-02-23T09:58:20.586Z,98233.28
2023-02-23T10:00:46.693Z,98237.81
2023-02-23T10:03:13.104Z,98235.94
2023-02-23T10:05:39.224Z,98231.66
2023-02-23T10:08:05.335Z,98240.28
2023-02-23T10:10:31.526Z,98240.47
2023-02-23T10:12:57.712Z,98241.09
2023-02-23T10:15:23.839Z,98242.13
2023-02-23T10:17:49.960Z,98241.28
2023-02-23T10:20:16.115Z,98242.31
2023-02-23T10:22:42.223Z,98242.31
2023-02-23T10:25:08.406Z,98241.28
2023-02-23T10:27:34.543Z,98241.28
2023-02-23T10:30:00.737Z,98239.66
2023-02-23T10:32:27.013Z,98247.47
2023-02-23T10:34:53.273Z,98257.53
2023-02-23T10:37:19.378Z,98253.81
2023-02-23T10:39:45.527Z,98255.47
2023-02-23T10:42:11.907Z,98254.44
2023-02-23T10:44:38.047Z,98256.47
2023-02-23T10:47:04.201Z,98256.47
2023-02-23T10:49:30.407Z,98266.16
2023-02-23T10:51:56.531Z,98258.97
2023-02-23T10:54:23.085Z,98257.09
2023-02-23T10:56:49.283Z,98262.44
2023-02-23T10:59:16.070Z,98262.44
2023-02-23T11:01:52.188Z,98265.94
2023-02-23T11:04:26.822Z,98257.91
2023-02-23T11:06:53.018Z,98263.25
2023-02-23T11:09:19.250Z,98258.97
2023-02-23T11:11:45.402Z,98260.59
2023-02-23T11:14:11.542Z,98257.09
2023-02-23T11:16:37.838Z,98255.47
2023-02-23T11:19:04.045Z,98252.81
2023-02-23T11:21:30.207Z,98249.09
2023-02-23T11:23:56.302Z,98260.81
2023-02-23T11:26:22.447Z,98253.41
2023-02-23T11:28:48.631Z,98253.63
2023-02-23T11:31:14.830Z,98255.25
2023-02-23T11:33:40.992Z,98254.63
2023-02-23T11:36:07.116Z,98256.28
2023-02-23T11:38:33.296Z,98249.91
2023-02-23T11:40:59.412Z,98252.59
2023-02-23T11:43:25.618Z,98251.56
2023-02-23T11:45:51.750Z,98245.38
2023-02-23T11:48:17.871Z,98258.72
2023-02-23T11:50:43.994Z,98249.09
2023-02-23T11:53:10.106Z,98243.56
2023-02-23T11:55:36.214Z,98243.56
2023-02-23T11:58:02.377Z,98242.72
2023-02-23T12:00:28.509Z,98241.09
2023-02-23T12:02:54.689Z,98248.28
2023-02-23T12:05:20.846Z,98250.13
2023-02-23T12:07:46.984Z,98247.47
2023-02-23T12:10:13.094Z,98247.25
2023-02-23T12:12:39.234Z,98249.09
2023-02-23T12:15:05.418Z,98254.44
2023-02-23T12:17:31.557Z,98250.72
2023-02-23T12:19:57.774Z,98250.94
2023-02-23T12:22:23.950Z,98243.13
2023-02-23T12:24:50.060Z,98236.97
2023-02-23T12:27:16.235Z,98247.47
2023-02-23T12:29:42.386Z,98243.94
2023-02-23T12:32:08.614Z,98241.09
2023-02-23T12:34:34.895Z,98245.63
2023-02-23T12:37:01.036Z,98234.13
2023-02-23T12:39:27.182Z,98237.59
2023-02-23T12:41:53.311Z,98242.94
2023-02-23T12:44:19.450Z,98243.75
2023-02-23T12:46:45.649Z,98241.09
2023-02-23T12:49:11.776Z,98246.44
2023-02-23T12:51:37.899Z,98250.72
2023-02-23T12:54:04.001Z,98246.44
2023-02-23T12:56:30.142Z,98249.09
2023-02-23T12:58:56.311Z,98245.38
2023-02-23T13:01:22.915Z,98252.59
2023-02-23T13:03:49.685Z,98257.09
2023-02-23T13:06:15.806Z,98257.91
2023-02-23T13:08:41.925Z,98257.09
2023-02-23T13:11:08.049Z,98257.09
2023-02-23T13:13:34.151Z,98251.75
2023-02-23T13:16:00.263Z,98254.44
2023-02-23T13:18:26.399Z,98254.25
2023-02-23T13:20:52.626Z,98259.59
2023-02-23T13:23:18.734Z,98256.28
2023-02-23T13:25:44.870Z,98256.06
2023-02-23T13:28:10.975Z,98254.25
2023-02-23T13:30:37.220Z,98250.72
2023-02-23T13:33:03.381Z,98248.06
2023-02-23T13:35:29.486Z,98255.06
2023-02-23T13:37:55.598Z,98253.41
2023-02-23T13:40:21.743Z,98258.72
2023-02-23T13:42:47.848Z,98259.59
2023-02-23T13:45:13.963Z,98260.59
2023-02-23T13:47:40.130Z,98262.44
2023-02-23T13:50:06.253Z,98265.72
2023-02-23T13:52:32.358Z,98265.72
2023-02-23T13:54:58.534Z,98265.72
2023-02-23T13:57:24.769Z,98262.03
2023-02-23T13:59:50.957Z,98272.69
2023-02-23T14:02:17.192Z,98273.75
2023-02-23T14:04:43.393Z,98276.41
2023-02-23T14:07:09.833Z,98280.94
2023-02-23T14:09:36.042Z,98279.06
2023-02-23T14:12:02.159Z,98290.56
2023-02-23T14:14:28.270Z,98285.22
2023-02-23T14:16:54.437Z,98287.72
2023-02-23T14:19:20.600Z,98289.56
2023-02-23T14:21:46.755Z,98281.75
2023-02-23T14:24:12.936Z,98292.41
2023-02-23T14:26:39.071Z,98289.75
2023-02-23T14:29:05.261Z,98281.56
2023-02-23T14:31:31.453Z,98280.94
2023-02-23T14:33:57.595Z,98288.72
2023-02-23T14:36:23.705Z,98280.72
2023-02-23T14:38:49.822Z,98284.22
2023-02-23T14:41:15.955Z,98280.72
2023-02-23T14:43:42.091Z,98287.09
2023-02-23T14:46:08.343Z,98283.38
2023-02-23T14:48:34.540Z,98290.56
2023-02-23T14:51:08.567Z,98286.03
2023-02-23T14:53:42.061Z,98294.03
2023-02-23T14:56:08.245Z,98283.38
2023-02-23T14:58:34.392Z,98289.56
2023-02-23T15:01:00.505Z,98293.03
2023-02-23T15:03:26.688Z,98291.38
2023-02-23T15:05:52.869Z,98291.59
2023-02-23T15:08:19.211Z,98290.56
2023-02-23T15:10:45.430Z,98300.41
2023-02-23T15:13:11.569Z,98293.41
2023-02-23T15:15:37.739Z,98292.41
2023-02-23T15:18:03.943Z,98300.41
2023-02-23T15:20:30.086Z,98296.72
2023-02-23T15:22:56.360Z,98289.75
2023-02-23T15:25:22.524Z,98293.41
2023-02-23T15:27:48.702Z,98292.41
2023-02-23T15:30:14.903Z,98306.56
2023-02-23T15:32:41.149Z,98309.25
2023-02-23T15:35:07.290Z,98304.94
2023-02-23T15:37:33.450Z,98308.44
2023-02-23T15:39:59.677Z,98304.72
2023-02-23T15:42:25.854Z,98306.78
2023-02-23T15:44:51.982Z,98303.91
2023-02-23T15:47:18.094Z,98303.09
2023-02-23T15:49:44.295Z,98293.22
2023-02-23T15:52:10.490Z,98307.63
2023-02-23T15:54:36.609Z,98303.91
2023-02-23T15:57:02.717Z,98304.72
2023-02-23T15:59:28.976Z,98305.75
2023-02-23T16:01:55.776Z,98304.72
2023-02-23T16:04:22.297Z,98309.25
2023-02-23T16:06:48.701Z,98305.75
2023-02-23T16:09:14.923Z,98303.91
2023-02-23T16:11:41.208Z,98303.28
2023-02-23T16:14:07.420Z,98300.41
2023-02-23T16:16:33.747Z,98293.22
2023-02-23T16:18:59.940Z,98291.59
2023-02-23T16:21:26.169Z,98293.41
2023-02-23T16:23:52.357Z,98294.03
2023-02-23T16:26:19.015Z,98286.88
2023-02-23T16:28:45.487Z,98283.38
2023-02-23T16:31:11.744Z,98286.03
2023-02-23T16:33:37.914Z,98278.25
2023-02-23T16:36:04.038Z,98282.56
2023-02-23T16:38:30.209Z,98289.75
2023-02-23T16:40:56.346Z,98290.56
2023-02-23T16:43:22.540Z,98287.09
2023-02-23T16:45:48.887Z,98295.91
2023-02-23T16:48:15.045Z,98292.41
2023-02-23T16:50:41.196Z,98292.41
2023-02-23T16:53:07.292Z,98280.94
2023-02-23T16:55:33.498Z,98281.75
2023-02-23T16:57:59.691Z,98282.56
2023-02-23T17:00:25.822Z,98276.41
2023-02-23T17:02:52.057Z,98276.41
2023-02-23T17:05:18.239Z,98280.09
2023-02-23T17:07:44.442Z,98281.94
2023-02-23T17:10:10.660Z,98288.09
2023-02-23T17:12:36.902Z,98290.75
2023-02-23T17:15:03.064Z,98292.59
2023-02-23T17:17:29.192Z,98290.75
2023-02-23T17:19:55.480Z,98289.75
2023-02-23T17:22:21.696Z,98290.59
2023-02-23T17:24:47.900Z,98291.88
2023-02-23T17:27:14.041Z,98293.69
2023-02-23T17:29:40.156Z,98297.63
2023-02-23T17:32:06.465Z,98305.00
2023-02-23T17:34:32.791Z,98295.97
2023-02-23T17:36:58.891Z,98302.94
2023-02-23T17:39:24.993Z,98297.81
2023-02-23T17:41:51.123Z,98301.09
2023-02-23T17:44:17.220Z,98303.97
2023-02-23T17:46:43.388Z,98303.34
2023-02-23T17:49:09.555Z,98309.72
2023-02-23T17:51:35.715Z,98308.88
2023-02-23T17:54:01.835Z,98309.09
2023-02-23T17:56:28.012Z,98314.63
2023-02-23T17:58:54.180Z,98308.47
2023-02-23T18:01:20.554Z,98311.97
2023-02-23T18:03:46.887Z,98320.41
2023-02-23T18:06:13.018Z,98310.97
2023-02-23T18:08:39.174Z,98312.22
2023-02-23T18:11:05.303Z,98323.31
2023-02-23T18:13:31.493Z,98315.91
2023-02-23T18:15:57.624Z,98327.63
2023-02-23T18:18:23.886Z,98324.53
2023-02-23T18:20:50.032Z,98322.91
2023-02-23T18:23:16.157Z,98319.22
2023-02-23T18:25:42.273Z,98323.69
2023-02-23T18:28:08.362Z,98323.72
2023-02-23T18:30:34.462Z,98334.16
2023-02-23T18:33:00.972Z,98327.19
2023-02-23T18:35:27.184Z,98325.56
2023-02-23T18:37:53.371Z,98315.88
2023-02-23T18:40:19.614Z,98329.25
2023-02-23T18:42:45.717Z,98325.13
2023-02-23T18:45:11.843Z,98326.38
2023-02-23T18:47:37.967Z,98329.44
2023-02-23T18:50:04.095Z,98320.00
2023-02-23T18:52:30.181Z,98323.06
2023-02-23T18:54:56.317Z,98324.28
2023-02-23T18:57:22.897Z,98331.28
2023-02-23T18:59:50.061Z,98327.81
2023-02-23T19:02:16.191Z,98327.81
2023-02-23T19:04:42.307Z,98335.19
2023-02-23T19:07:08.436Z,98330.66
2023-02-23T19:09:34.560Z,98321.03
2023-02-23T19:12:00.669Z,98323.69
2023-02-23T19:14:47.943Z,98327.38
2023-02-23T19:17:12.877Z,98320.41
2023-02-23T19:19:39.014Z,98324.91
2023-02-23T19:22:05.131Z,98317.72
2023-02-23T19:24:31.737Z,98323.88
2023-02-23T19:26:57.895Z,98322.03
2023-02-23T19:29:24.081Z,98324.50
2023-02-23T19:31:50.331Z,98331.72
2023-02-23T19:34:16.579Z,98323.69
2023-02-23T19:36:42.708Z,98319.16
2023-02-23T19:39:08.844Z,98327.19
2023-02-23T19:41:34.956Z,98332.53
2023-02-23T19:44:01.091Z,98322.84
2023-02-23T19:46:27.319Z,98323.69
2023-02-23T19:48:53.472Z,98321.22
2023-02-23T19:51:19.895Z,98319.38
2023-02-23T19:53:46.205Z,98326.56
2023-02-23T19:56:12.353Z,98326.75
2023-02-23T19:58:38.534Z,98325.75
2023-02-23T20:01:04.691Z,98332.72
2023-02-23T20:03:30.831Z,98323.06
2023-02-23T20:05:56.953Z,98324.91
2023-02-23T20:08:23.109Z,98328.41
2023-02-23T20:10:49.274Z,98323.06
2023-02-23T20:13:15.365Z,98325.75
2023-02-23T20:15:41.498Z,98321.22
2023-02-23T20:18:07.625Z,98313.41
2023-02-23T20:20:35.307Z,98317.72
2023-02-23T20:23:02.018Z,98311.34
2023-02-23T20:25:28.146Z,98320.41
2023-02-23T20:27:54.248Z,98322.84
2023-02-23T20:30:20.421Z,98315.69
2023-02-23T20:32:46.660Z,98316.50
2023-02-23T20:35:12.901Z,98320.00
2023-02-23T20:37:39.167Z,98313.59
2023-02-23T20:40:05.287Z,98324.50
2023-02-23T20:42:31.418Z,98322.66
2023-02-23T20:44:57.621Z,98317.31
2023-02-23T20:47:23.804Z,98321.84
2023-02-23T20:49:49.909Z,98320.81
2023-02-23T20:52:16.035Z,98326.16
2023-02-23T20:54:42.147Z,98321.63
2023-02-23T20:57:08.252Z,98316.91
2023-02-23T20:59:34.383Z,98322.47
2023-02-23T21:02:00.558Z,98320.63
2023-02-23T21:04:26.704Z,98321.22
2023-02-23T21:06:52.891Z,98311.78
2023-02-23T21:09:19.028Z,98304.59
2023-02-23T21:11:45.136Z,98309.72
2023-02-23T21:14:11.310Z,98318.34
2023-02-23T21:16:37.459Z,98318.56
2023-02-23T21:19:03.579Z,98310.56
2023-02-23T21:21:29.754Z,98305.22
2023-02-23T21:23:55.887Z,98301.69
2023-02-23T21:26:22.097Z,98294.53
2023-02-23T21:28:48.286Z,98293.50
2023-02-23T21:31:14.590Z,98291.63
2023-02-23T21:33:40.802Z,98294.53
2023-02-23T21:36:06.931Z,98302.53
2023-02-23T21:38:33.121Z,98299.88
2023-02-23T21:40:59.223Z,98298.03
2023-02-23T21:43:25.344Z,98297.22
2023-02-23T21:45:51.454Z,98303.16
2023-02-23T21:48:17.620Z,98295.34
2023-02-23T21:50:43.804Z,98294.53
2023-02-23T21:53:09.990Z,98291.63
2023-02-23T21:55:36.112Z,98295.97
2023-02-23T21:58:02.300Z,98291.44
2023-02-23T22:00:28.438Z,98288.78
2023-02-23T22:02:54.625Z,98284.47
2023-02-23T22:05:20.830Z,98288.78
2023-02-23T22:07:46.948Z,98279.72
2023-02-23T22:10:13.065Z,98283.44
2023-02-23T22:12:39.191Z,98281.38
2023-02-23T22:15:05.327Z,98284.25
2023-02-23T22:17:31.434Z,98281.81
2023-02-23T22:19:57.706Z,98279.13
2023-02-23T22:22:23.889Z,98275.44
2023-02-23T22:24:50.018Z,98274.19
2023-02-23T22:27:16.204Z,98283.03
2023-02-23T22:29:42.346Z,98279.53
2023-02-23T22:32:08.640Z,98276.03
2023-02-23T22:34:34.976Z,98272.34
2023-02-23T22:37:01.083Z,98271.31
2023-02-23T22:39:27.181Z,98277.69
2023-02-23T22:41:53.323Z,98279.34
2023-02-23T22:44:19.449Z,98283.84
2023-02-23T22:46:47.180Z,98283.03
2023-02-23T22:49:13.544Z,98273.16
2023-02-23T22:51:39.710Z,98274.19
2023-02-23T22:54:05.838Z,98269.66
2023-02-23T22:56:32.047Z,98271.31
2023-02-23T22:58:58.148Z,98279.34
2023-02-23T23:01:24.251Z,98263.31
2023-02-23T23:03:50.376Z,98270.28
2023-02-23T23:06:16.572Z,98270.28
2023-02-23T23:08:42.723Z,98268.44
2023-02-23T23:11:08.906Z,98261.22
2023-02-23T23:13:35.109Z,98262.09
2023-02-23T23:16:07.682Z,98254.25
2023-02-23T23:18:34.646Z,98259.59
2023-02-23T23:21:00.750Z,98257.75
2023-02-23T23:23:26.938Z,98255.91
2023-02-23T23:25:53.068Z,98261.22
2023-02-23T23:28:19.268Z,98256.75
2023-02-23T23:30:45.531Z,98266.56
2023-02-23T23:33:11.844Z,98262.91
2023-02-23T23:35:38.158Z,98261.03
2023-02-23T23:38:04.309Z,98254.06
2023-02-23T23:40:30.507Z,98258.38
2023-02-23T23:42:56.636Z,98252.22
2023-02-23T23:45:22.736Z,98255.50
2023-02-23T23:47:48.873Z,98255.50
2023-02-23T23:50:14.997Z,98248.50
2023-02-23T23:52:41.164Z,98246.88
2023-02-23T23:55:07.295Z,98244.81
2023-02-23T23:57:33.480Z,98245.63
2023-02-23T23:59:59.617Z,98248.31
